Panama, Oklahoma
Current Conditions -  °F | °C
As of 8:15 PM on Saturday 25 Oct 2014 (Local Time) from KRKR Reporting Station
Clear Clear  
Wind Chill: 69°   Ceiling: Unl
Heat Index: 69°   Visibility: 10mi
Dew Point: 64°   Wind: 3mph
Humidity: 85%   Direction: 220°SW
Pressure: 30.03"   Gusts: NA
Location:  35.17°N, 94.67°W
Report Text: KRKR 260115Z AUTO 22003KT 10SM CLR 21/18 A3003 RMK AO2 T02060180
Loading
Personal Weather Stations






























Interactive Weather Map
Tropical Storm Tracking
New forecast layout! Learn more

10-Day Weather Forecast

Advertisements
Track Severe Weather on mobile